createdAt,value
2023-01-09T00:00:01.499Z,-0.88
2023-01-09T00:02:35.276Z,-0.86
2023-01-09T00:05:06.283Z,-0.82
2023-01-09T00:07:34.106Z,-0.80
2023-01-09T00:10:01.778Z,-0.78
2023-01-09T00:12:29.982Z,-0.79
2023-01-09T00:14:57.560Z,-0.77
2023-01-09T00:17:26.027Z,-0.78
2023-01-09T00:19:53.967Z,-0.69
2023-01-09T00:22:22.905Z,-0.69
2023-01-09T00:24:52.616Z,-0.69
2023-01-09T00:27:20.659Z,-0.68
2023-01-09T00:29:48.189Z,-0.60
2023-01-09T00:32:16.904Z,-0.60
2023-01-09T00:34:44.620Z,-0.59
2023-01-09T00:37:12.133Z,-0.56
2023-01-09T00:39:42.973Z,-0.51
2023-01-09T00:42:12.968Z,-0.44
2023-01-09T00:44:43.836Z,-0.50
2023-01-09T00:47:15.696Z,-0.49
2023-01-09T00:49:45.709Z,-0.47
2023-01-09T00:52:14.590Z,-0.47
2023-01-09T00:54:44.346Z,-0.51
2023-01-09T00:57:13.948Z,-0.42
2023-01-09T00:59:42.493Z,-0.50
2023-01-09T01:02:10.611Z,-0.42
2023-01-09T01:04:38.612Z,-0.43
2023-01-09T01:07:06.387Z,-0.39
2023-01-09T01:09:34.005Z,-0.39
2023-01-09T01:12:03.285Z,-0.39
2023-01-09T01:14:31.191Z,-0.35
2023-01-09T01:16:58.781Z,-0.38
2023-01-09T01:19:26.619Z,-0.34
2023-01-09T01:21:55.818Z,-0.37
2023-01-09T01:24:23.557Z,-0.38
2023-01-09T01:26:51.369Z,-0.33
2023-01-09T01:29:20.732Z,-0.34
2023-01-09T01:31:48.270Z,-0.32
2023-01-09T01:34:16.033Z,-0.31
2023-01-09T01:36:43.639Z,-0.27
2023-01-09T01:39:11.206Z,-0.26
2023-01-09T01:41:38.915Z,-0.24
2023-01-09T01:44:27.496Z,-0.23
2023-01-09T01:46:57.642Z,-0.21
2023-01-09T01:49:25.492Z,-0.17
2023-01-09T01:51:54.119Z,-0.12
2023-01-09T01:54:25.271Z,-0.16
2023-01-09T01:57:01.007Z,-0.11
2023-01-09T01:59:31.486Z,-0.09
2023-01-09T02:02:02.326Z,-0.07
2023-01-09T02:04:33.208Z,-0.07
2023-01-09T02:07:04.844Z,-0.08
2023-01-09T02:09:32.113Z,-0.09
2023-01-09T02:12:00.198Z,-0.01
2023-01-09T02:14:31.831Z,0.02
2023-01-09T02:17:08.922Z,0.01
2023-01-09T02:20:06.800Z,0.06
2023-01-09T02:22:41.101Z,0.02
2023-01-09T02:25:42.668Z,0.12
2023-01-09T02:28:44.749Z,0.14
2023-01-09T02:31:21.571Z,0.12
2023-01-09T02:34:02.374Z,0.15
2023-01-09T02:36:34.508Z,0.14
2023-01-09T02:39:15.969Z,0.22
2023-01-09T02:41:50.437Z,0.22
2023-01-09T02:44:21.906Z,0.28
2023-01-09T02:47:02.353Z,0.28
2023-01-09T02:49:31.127Z,0.29
2023-01-09T02:52:10.323Z,0.28
2023-01-09T02:54:50.988Z,0.37
2023-01-09T02:57:43.166Z,0.37
2023-01-09T03:00:23.327Z,0.39
2023-01-09T03:02:55.504Z,0.35
2023-01-09T03:05:29.950Z,0.40
2023-01-09T03:08:02.828Z,0.42
2023-01-09T03:10:36.348Z,0.42
2023-01-09T03:13:09.567Z,0.46
2023-01-09T03:15:41.624Z,0.50
2023-01-09T03:18:13.885Z,0.50
2023-01-09T03:20:42.914Z,0.45
2023-01-09T03:23:10.913Z,0.44
2023-01-09T03:25:39.372Z,0.47
2023-01-09T03:28:08.936Z,0.50
2023-01-09T03:30:36.878Z,0.51
2023-01-09T03:33:04.521Z,0.50
2023-01-09T03:35:34.474Z,0.57
2023-01-09T03:38:02.171Z,0.56
2023-01-09T03:40:29.847Z,0.61
2023-01-09T03:42:57.643Z,0.57
2023-01-09T03:45:25.471Z,0.61
2023-01-09T03:47:53.205Z,0.60
2023-01-09T03:50:21.066Z,0.67
2023-01-09T03:52:50.185Z,0.68
2023-01-09T03:55:17.944Z,0.68
2023-01-09T03:57:45.601Z,0.69
2023-01-09T04:00:14.123Z,0.73
2023-01-09T04:02:42.723Z,0.70
2023-01-09T04:05:10.738Z,0.74
2023-01-09T04:07:38.435Z,0.77
2023-01-09T04:10:09.703Z,0.79
2023-01-09T04:12:37.484Z,0.82
2023-01-09T04:15:06.482Z,0.78
2023-01-09T04:17:35.852Z,0.85
2023-01-09T04:20:03.949Z,0.83
2023-01-09T04:22:31.931Z,0.88
2023-01-09T04:24:59.448Z,0.88
2023-01-09T04:27:28.534Z,0.89
2023-01-09T04:29:56.307Z,0.87
2023-01-09T04:32:23.858Z,0.88
2023-01-09T04:34:51.947Z,0.93
2023-01-09T04:37:19.988Z,0.98
2023-01-09T04:39:47.523Z,0.97
2023-01-09T04:42:19.529Z,0.98
2023-01-09T04:44:48.725Z,1.01
2023-01-09T04:47:16.442Z,1.01
2023-01-09T04:49:44.109Z,1.01
2023-01-09T04:52:11.955Z,1.02
2023-01-09T04:54:39.881Z,1.02
2023-01-09T04:57:07.662Z,1.08
2023-01-09T04:59:36.962Z,1.09
2023-01-09T05:02:06.212Z,1.11
2023-01-09T05:04:34.369Z,1.12
2023-01-09T05:07:02.155Z,1.14
2023-01-09T05:09:30.076Z,1.18
2023-01-09T05:11:57.738Z,1.22
2023-01-09T05:14:25.450Z,1.24
2023-01-09T05:16:53.046Z,1.27
2023-01-09T05:19:22.892Z,1.29
2023-01-09T05:21:50.916Z,1.35
2023-01-09T05:24:18.561Z,1.34
2023-01-09T05:26:46.216Z,1.34
2023-01-09T05:29:13.929Z,1.34
2023-01-09T05:31:41.477Z,1.41
2023-01-09T05:34:09.166Z,1.42
2023-01-09T05:36:39.458Z,1.41
2023-01-09T05:39:07.090Z,1.50
2023-01-09T05:41:34.979Z,1.51
2023-01-09T05:44:03.637Z,1.57
2023-01-09T05:46:31.563Z,1.57
2023-01-09T05:48:59.526Z,1.66
2023-01-09T05:51:27.305Z,1.67
2023-01-09T05:53:56.352Z,1.69
2023-01-09T05:56:24.000Z,1.70
2023-01-09T05:58:51.675Z,1.83
2023-01-09T06:01:19.259Z,1.90
2023-01-09T06:03:47.036Z,1.97
2023-01-09T06:06:15.693Z,2.02
2023-01-09T06:08:43.243Z,2.08
2023-01-09T06:11:12.407Z,2.17
2023-01-09T06:13:43.489Z,2.22
2023-01-09T06:16:11.188Z,2.29
2023-01-09T06:18:39.293Z,2.39
2023-01-09T06:21:07.160Z,2.41
2023-01-09T06:23:34.789Z,2.50
2023-01-09T06:26:06.441Z,2.59
2023-01-09T06:28:35.578Z,2.66
2023-01-09T06:31:03.233Z,2.84
2023-01-09T06:33:30.998Z,2.90
2023-01-09T06:35:58.781Z,2.99
2023-01-09T06:38:26.415Z,3.07
2023-01-09T06:40:54.227Z,3.12
2023-01-09T06:43:21.885Z,3.13
2023-01-09T06:45:53.265Z,3.15
2023-01-09T06:48:20.943Z,3.17
2023-01-09T06:50:48.745Z,3.24
2023-01-09T06:53:16.319Z,3.28
2023-01-09T06:55:44.358Z,3.28
2023-01-09T06:58:12.749Z,3.30
2023-01-09T07:00:40.255Z,3.33
2023-01-09T07:03:09.322Z,3.37
2023-01-09T07:05:41.086Z,3.42
2023-01-09T07:08:09.610Z,3.45
2023-01-09T07:10:38.830Z,3.44
2023-01-09T07:13:06.623Z,3.50
2023-01-09T07:15:34.497Z,3.54
2023-01-09T07:18:03.289Z,3.57
2023-01-09T07:20:32.494Z,3.60
2023-01-09T07:23:00.568Z,3.58
2023-01-09T07:25:28.340Z,3.62
2023-01-09T07:27:56.762Z,3.61
2023-01-09T07:30:24.531Z,3.54
2023-01-09T07:32:53.191Z,3.61
2023-01-09T07:35:20.683Z,3.66
2023-01-09T07:37:49.727Z,3.78
2023-01-09T07:40:17.641Z,3.74
2023-01-09T07:42:45.197Z,3.77
2023-01-09T07:45:13.089Z,3.81
2023-01-09T07:47:41.361Z,3.82
2023-01-09T07:50:09.948Z,3.81
2023-01-09T07:52:38.162Z,3.84
2023-01-09T07:55:09.020Z,3.83
2023-01-09T07:57:36.584Z,3.82
2023-01-09T08:00:05.556Z,3.86
2023-01-09T08:02:33.610Z,3.88
2023-01-09T11:40:26.454Z,4.33
2023-01-09T11:43:15.624Z,4.34
2023-01-09T11:46:00.762Z,4.33
2023-01-09T11:48:37.946Z,4.31
2023-01-09T11:51:17.535Z,4.32
2023-01-09T11:53:55.483Z,4.36
2023-01-09T11:56:24.926Z,4.38
2023-01-09T11:58:53.038Z,4.38
2023-01-09T12:02:01.559Z,4.37
2023-01-09T12:04:35.298Z,4.33
2023-01-09T12:07:22.279Z,4.27
2023-01-09T12:09:58.973Z,4.20
2023-01-09T12:12:36.857Z,4.15
2023-01-09T12:15:23.309Z,4.07
2023-01-09T12:18:11.053Z,4.03
2023-01-09T12:20:53.490Z,3.97
2023-01-09T12:23:35.161Z,3.96
2023-01-09T12:26:11.276Z,3.96
2023-01-09T12:29:21.805Z,3.94
2023-01-09T12:32:06.864Z,3.99
2023-01-09T12:34:52.814Z,4.06
2023-01-09T12:37:46.301Z,4.10
2023-01-09T12:40:30.763Z,4.14
2023-01-09T12:43:07.906Z,4.15
2023-01-09T12:45:54.789Z,4.15
2023-01-09T12:48:43.529Z,4.17
2023-01-09T12:51:28.524Z,4.16
2023-01-09T12:54:01.278Z,4.10
2023-01-09T12:56:33.665Z,4.11
2023-01-09T12:59:10.433Z,4.11
2023-01-09T13:01:46.066Z,4.08
2023-01-09T13:04:19.464Z,4.05
2023-01-09T13:06:53.279Z,4.03
2023-01-09T13:09:26.652Z,4.06
2023-01-09T13:12:03.167Z,4.07
2023-01-09T13:14:46.099Z,4.08
2023-01-09T13:17:21.357Z,4.08
2023-01-09T13:19:49.057Z,4.12
2023-01-09T13:22:17.301Z,4.12
2023-01-09T13:25:13.834Z,4.12
2023-01-09T13:27:46.831Z,4.14
2023-01-09T13:30:30.349Z,4.15
2023-01-09T13:33:13.041Z,4.14
2023-01-09T13:35:49.379Z,4.17
2023-01-09T13:38:21.782Z,4.17
2023-01-09T13:41:02.209Z,4.16
2023-01-09T13:43:54.370Z,4.19
2023-01-09T13:46:21.954Z,4.18
2023-01-09T13:48:52.494Z,4.17
2023-01-09T13:51:56.902Z,4.18
2023-01-09T13:55:02.769Z,4.19
2023-01-09T13:57:33.373Z,4.20
2023-01-09T14:00:38.631Z,4.19
2023-01-09T14:03:16.839Z,4.08
2023-01-09T14:06:19.412Z,4.14
2023-01-09T14:08:49.125Z,4.10
2023-01-09T14:11:22.923Z,4.08
2023-01-09T14:14:02.671Z,3.98
2023-01-09T14:16:31.580Z,4.07
2023-01-09T14:19:05.890Z,4.06
2023-01-09T14:21:47.837Z,4.07
2023-01-09T14:24:25.205Z,4.08
2023-01-09T14:26:56.829Z,4.09
2023-01-09T14:29:43.398Z,4.09
2023-01-09T14:32:45.615Z,4.08
2023-01-09T14:35:17.780Z,4.06
2023-01-09T14:37:56.365Z,4.05
2023-01-09T14:40:24.366Z,4.03
2023-01-09T14:42:55.325Z,4.00
2023-01-09T14:45:25.166Z,4.02
2023-01-09T14:47:56.448Z,4.01
2023-01-09T14:50:30.618Z,4.02
2023-01-09T14:53:05.586Z,3.99
2023-01-09T14:55:43.400Z,3.96
2023-01-09T14:58:12.346Z,3.82
2023-01-09T15:00:49.727Z,3.77
2023-01-09T15:03:17.579Z,3.65
2023-01-09T15:05:46.534Z,3.60
2023-01-09T15:08:20.623Z,3.53
2023-01-09T15:10:51.158Z,3.51
2023-01-09T15:13:25.122Z,3.46
2023-01-09T15:15:53.377Z,3.39
2023-01-09T15:18:24.005Z,3.39
2023-01-09T15:20:54.367Z,3.35
2023-01-09T15:23:25.510Z,3.34
2023-01-09T15:25:53.033Z,3.27
2023-01-09T15:28:25.031Z,3.27
2023-01-09T15:31:03.209Z,3.32
2023-01-09T15:33:31.415Z,3.26
2023-01-09T15:35:59.665Z,3.15
2023-01-09T15:38:31.856Z,3.27
2023-01-09T15:41:04.371Z,3.19
2023-01-09T15:43:32.770Z,3.26
2023-01-09T15:46:01.332Z,3.31
2023-01-09T15:48:31.178Z,3.37
2023-01-09T15:51:03.431Z,3.26
2023-01-09T15:53:33.155Z,3.31
2023-01-09T15:56:15.356Z,3.35
2023-01-09T15:58:45.081Z,3.36
2023-01-09T16:01:31.335Z,3.36
2023-01-09T16:04:06.925Z,3.35
2023-01-09T16:06:36.176Z,3.37
2023-01-09T16:09:16.256Z,3.28
2023-01-09T16:11:47.588Z,3.25
2023-01-09T16:14:18.577Z,3.28
2023-01-09T16:16:47.717Z,3.14
2023-01-09T16:19:30.327Z,3.27
2023-01-09T16:21:59.134Z,3.16
2023-01-09T16:24:37.881Z,3.21
2023-01-09T16:27:27.156Z,3.21
2023-01-09T16:29:58.414Z,3.13
2023-01-09T16:32:28.848Z,3.20
2023-01-09T16:34:58.525Z,3.14
2023-01-09T16:37:26.920Z,3.11
2023-01-09T16:40:26.741Z,3.10
2023-01-09T16:42:56.602Z,3.16
2023-01-09T16:45:25.414Z,3.21
2023-01-09T16:47:53.174Z,3.21
2023-01-09T16:50:21.276Z,3.34
2023-01-09T16:52:48.834Z,3.40
2023-01-09T16:55:16.743Z,3.41
2023-01-09T16:57:47.676Z,3.44
2023-01-09T17:00:17.568Z,3.44
2023-01-09T17:02:45.782Z,3.46
2023-01-09T17:05:13.852Z,3.50
2023-01-09T17:07:41.605Z,3.49
2023-01-09T17:10:19.128Z,3.51
2023-01-09T17:12:48.758Z,3.51
2023-01-09T17:15:16.417Z,3.50
2023-01-09T17:17:44.093Z,3.49
2023-01-09T17:20:17.127Z,3.49
2023-01-09T17:22:48.947Z,3.44
2023-01-09T17:25:17.014Z,3.43
2023-01-09T17:27:45.366Z,3.38
2023-01-09T17:30:18.918Z,3.32
2023-01-09T17:32:47.207Z,3.33
2023-01-09T17:35:17.228Z,3.33
2023-01-09T17:37:44.834Z,3.37
2023-01-09T17:40:18.770Z,3.38
2023-01-09T17:42:47.677Z,3.31
2023-01-09T17:45:16.913Z,3.34
